sensor_id;sensor_type;location;lat;lon;timestamp;P1;durP1;ratioP1;P2;durP2;ratioP2
1136;SDS011;557;48.466;7.950;2023-04-24T00:01:51;1.77;;;1.10;;
1136;SDS011;557;48.466;7.950;2023-04-24T00:04:40;1.50;;;0.80;;
1136;SDS011;557;48.466;7.950;2023-04-24T00:07:30;2.03;;;1.10;;
1136;SDS011;557;48.466;7.950;2023-04-24T00:10:17;4.40;;;1.10;;
1136;SDS011;557;48.466;7.950;2023-04-24T00:13:05;3.00;;;1.20;;
1136;SDS011;557;48.466;7.950;2023-04-24T00:15:52;1.60;;;0.90;;
1136;SDS011;557;48.466;7.950;2023-04-24T00:18:39;3.87;;;1.17;;
1136;SDS011;557;48.466;7.950;2023-04-24T00:21:28;2.37;;;0.73;;
1136;SDS011;557;48.466;7.950;2023-04-24T00:24:18;1.70;;;0.73;;
1136;SDS011;557;48.466;7.950;2023-04-24T00:27:05;1.87;;;0.97;;
1136;SDS011;557;48.466;7.950;2023-04-24T00:29:52;2.13;;;1.17;;
1136;SDS011;557;48.466;7.950;2023-04-24T00:32:40;3.37;;;1.33;;
1136;SDS011;557;48.466;7.950;2023-04-24T00:35:27;1.70;;;1.10;;
1136;SDS011;557;48.466;7.950;2023-04-24T00:38:16;3.33;;;1.20;;
1136;SDS011;557;48.466;7.950;2023-04-24T00:41:03;2.87;;;1.37;;
1136;SDS011;557;48.466;7.950;2023-04-24T00:43:51;2.70;;;1.13;;
1136;SDS011;557;48.466;7.950;2023-04-24T00:46:38;1.70;;;1.30;;
1136;SDS011;557;48.466;7.950;2023-04-24T00:49:26;1.63;;;0.80;;
1136;SDS011;557;48.466;7.950;2023-04-24T00:52:13;2.47;;;1.00;;
1136;SDS011;557;48.466;7.950;2023-04-24T00:55:05;1.90;;;1.00;;
1136;SDS011;557;48.466;7.950;2023-04-24T00:57:52;2.13;;;1.10;;
1136;SDS011;557;48.466;7.950;2023-04-24T01:00:40;2.37;;;1.20;;
1136;SDS011;557;48.466;7.950;2023-04-24T01:03:28;1.70;;;0.90;;
1136;SDS011;557;48.466;7.950;2023-04-24T01:06:17;1.80;;;0.90;;
1136;SDS011;557;48.466;7.950;2023-04-24T01:09:05;2.63;;;1.60;;
1136;SDS011;557;48.466;7.950;2023-04-24T01:11:55;1.80;;;1.13;;
1136;SDS011;557;48.466;7.950;2023-04-24T01:14:43;1.80;;;0.93;;
1136;SDS011;557;48.466;7.950;2023-04-24T01:17:30;2.03;;;1.10;;
1136;SDS011;557;48.466;7.950;2023-04-24T01:20:18;5.93;;;1.40;;
1136;SDS011;557;48.466;7.950;2023-04-24T01:23:07;2.53;;;1.03;;
1136;SDS011;557;48.466;7.950;2023-04-24T01:25:55;1.37;;;0.60;;
1136;SDS011;557;48.466;7.950;2023-04-24T01:28:43;3.03;;;1.07;;
1136;SDS011;557;48.466;7.950;2023-04-24T01:31:31;1.50;;;0.63;;
1136;SDS011;557;48.466;7.950;2023-04-24T01:34:19;1.60;;;0.90;;
1136;SDS011;557;48.466;7.950;2023-04-24T01:37:07;1.50;;;0.90;;
1136;SDS011;557;48.466;7.950;2023-04-24T01:39:55;2.50;;;1.17;;
1136;SDS011;557;48.466;7.950;2023-04-24T01:42:43;1.70;;;0.70;;
1136;SDS011;557;48.466;7.950;2023-04-24T01:45:31;2.07;;;1.20;;
1136;SDS011;557;48.466;7.950;2023-04-24T01:48:19;1.77;;;1.00;;
1136;SDS011;557;48.466;7.950;2023-04-24T01:51:06;2.73;;;0.80;;
1136;SDS011;557;48.466;7.950;2023-04-24T01:53:54;2.17;;;0.90;;
1136;SDS011;557;48.466;7.950;2023-04-24T01:56:42;2.20;;;1.13;;
1136;SDS011;557;48.466;7.950;2023-04-24T01:59:30;3.50;;;1.20;;
1136;SDS011;557;48.466;7.950;2023-04-24T02:02:20;1.90;;;0.83;;
1136;SDS011;557;48.466;7.950;2023-04-24T02:05:09;1.90;;;0.80;;
1136;SDS011;557;48.466;7.950;2023-04-24T02:07:56;1.87;;;0.87;;
1136;SDS011;557;48.466;7.950;2023-04-24T02:10:44;1.60;;;0.90;;
1136;SDS011;557;48.466;7.950;2023-04-24T02:13:32;1.70;;;0.80;;
1136;SDS011;557;48.466;7.950;2023-04-24T02:16:22;2.80;;;0.77;;
1136;SDS011;557;48.466;7.950;2023-04-24T02:19:10;1.80;;;0.80;;
1136;SDS011;557;48.466;7.950;2023-04-24T02:21:57;1.63;;;0.63;;
1136;SDS011;557;48.466;7.950;2023-04-24T02:24:44;2.50;;;0.90;;
1136;SDS011;557;48.466;7.950;2023-04-24T02:27:32;1.80;;;0.90;;
1136;SDS011;557;48.466;7.950;2023-04-24T02:30:20;3.63;;;0.83;;
1136;SDS011;557;48.466;7.950;2023-04-24T02:33:08;1.50;;;0.80;;
1136;SDS011;557;48.466;7.950;2023-04-24T02:35:55;1.80;;;0.80;;
1136;SDS011;557;48.466;7.950;2023-04-24T02:38:42;2.03;;;0.87;;
1136;SDS011;557;48.466;7.950;2023-04-24T02:41:30;1.40;;;0.50;;
1136;SDS011;557;48.466;7.950;2023-04-24T02:44:18;1.63;;;0.70;;
1136;SDS011;557;48.466;7.950;2023-04-24T02:47:06;1.30;;;0.57;;
1136;SDS011;557;48.466;7.950;2023-04-24T02:49:54;2.13;;;1.03;;
1136;SDS011;557;48.466;7.950;2023-04-24T02:52:41;2.73;;;0.70;;
1136;SDS011;557;48.466;7.950;2023-04-24T02:55:29;1.33;;;0.77;;
1136;SDS011;557;48.466;7.950;2023-04-24T02:58:16;1.80;;;0.80;;
1136;SDS011;557;48.466;7.950;2023-04-24T03:01:05;4.47;;;1.30;;
1136;SDS011;557;48.466;7.950;2023-04-24T03:03:54;3.10;;;0.80;;
1136;SDS011;557;48.466;7.950;2023-04-24T03:06:41;1.77;;;0.80;;
1136;SDS011;557;48.466;7.950;2023-04-24T03:09:28;1.77;;;0.80;;
1136;SDS011;557;48.466;7.950;2023-04-24T03:12:16;2.63;;;1.00;;
1136;SDS011;557;48.466;7.950;2023-04-24T03:15:03;3.17;;;1.00;;
1136;SDS011;557;48.466;7.950;2023-04-24T03:17:51;2.40;;;1.20;;
1136;SDS011;557;48.466;7.950;2023-04-24T03:20:40;1.87;;;0.90;;
1136;SDS011;557;48.466;7.950;2023-04-24T03:23:27;1.70;;;1.13;;
1136;SDS011;557;48.466;7.950;2023-04-24T03:26:14;2.20;;;0.93;;
1136;SDS011;557;48.466;7.950;2023-04-24T03:29:02;2.10;;;1.00;;
1136;SDS011;557;48.466;7.950;2023-04-24T03:31:49;1.67;;;0.80;;
1136;SDS011;557;48.466;7.950;2023-04-24T03:34:36;1.67;;;1.17;;
1136;SDS011;557;48.466;7.950;2023-04-24T03:37:25;2.17;;;1.33;;
1136;SDS011;557;48.466;7.950;2023-04-24T03:40:13;1.70;;;1.10;;
1136;SDS011;557;48.466;7.950;2023-04-24T03:43:00;2.13;;;1.00;;
1136;SDS011;557;48.466;7.950;2023-04-24T03:45:47;1.67;;;1.07;;
1136;SDS011;557;48.466;7.950;2023-04-24T03:48:35;2.17;;;1.40;;
1136;SDS011;557;48.466;7.950;2023-04-24T03:51:22;3.50;;;1.50;;
1136;SDS011;557;48.466;7.950;2023-04-24T03:54:11;3.07;;;1.50;;
1136;SDS011;557;48.466;7.950;2023-04-24T03:56:59;2.50;;;1.30;;
1136;SDS011;557;48.466;7.950;2023-04-24T03:59:46;2.97;;;1.73;;
1136;SDS011;557;48.466;7.950;2023-04-24T04:02:34;3.50;;;1.30;;
1136;SDS011;557;48.466;7.950;2023-04-24T04:05:21;2.00;;;1.27;;
1136;SDS011;557;48.466;7.950;2023-04-24T04:08:08;3.40;;;1.60;;
1136;SDS011;557;48.466;7.950;2023-04-24T04:10:57;3.37;;;1.57;;
1136;SDS011;557;48.466;7.950;2023-04-24T04:13:45;1.70;;;1.30;;
1136;SDS011;557;48.466;7.950;2023-04-24T04:16:33;2.33;;;1.13;;
1136;SDS011;557;48.466;7.950;2023-04-24T04:19:21;2.07;;;1.50;;
1136;SDS011;557;48.466;7.950;2023-04-24T04:22:09;3.10;;;1.47;;
1136;SDS011;557;48.466;7.950;2023-04-24T04:24:56;2.70;;;1.70;;
1136;SDS011;557;48.466;7.950;2023-04-24T04:27:45;3.03;;;1.97;;
1136;SDS011;557;48.466;7.950;2023-04-24T04:30:33;4.27;;;2.17;;
1136;SDS011;557;48.466;7.950;2023-04-24T04:33:20;3.13;;;1.90;;
1136;SDS011;557;48.466;7.950;2023-04-24T04:36:08;2.47;;;1.63;;
1136;SDS011;557;48.466;7.950;2023-04-24T04:38:56;3.57;;;2.17;;
1136;SDS011;557;48.466;7.950;2023-04-24T04:41:44;3.03;;;1.67;;
1136;SDS011;557;48.466;7.950;2023-04-24T04:44:35;2.70;;;1.83;;
1136;SDS011;557;48.466;7.950;2023-04-24T04:47:24;2.80;;;1.70;;
1136;SDS011;557;48.466;7.950;2023-04-24T04:50:12;2.33;;;1.30;;
1136;SDS011;557;48.466;7.950;2023-04-24T04:52:59;3.53;;;1.70;;
1136;SDS011;557;48.466;7.950;2023-04-24T04:55:46;3.67;;;1.70;;
1136;SDS011;557;48.466;7.950;2023-04-24T04:58:34;2.70;;;1.40;;
1136;SDS011;557;48.466;7.950;2023-04-24T05:01:23;2.87;;;1.57;;
1136;SDS011;557;48.466;7.950;2023-04-24T05:04:10;2.50;;;1.60;;
1136;SDS011;557;48.466;7.950;2023-04-24T05:06:58;2.10;;;1.40;;
1136;SDS011;557;48.466;7.950;2023-04-24T05:09:45;2.83;;;1.70;;
1136;SDS011;557;48.466;7.950;2023-04-24T05:12:32;2.57;;;1.67;;
1136;SDS011;557;48.466;7.950;2023-04-24T05:15:20;2.53;;;1.77;;
1136;SDS011;557;48.466;7.950;2023-04-24T05:18:09;2.40;;;1.83;;
1136;SDS011;557;48.466;7.950;2023-04-24T05:20:56;3.40;;;1.80;;
1136;SDS011;557;48.466;7.950;2023-04-24T05:23:43;3.43;;;2.00;;
1136;SDS011;557;48.466;7.950;2023-04-24T05:26:30;2.60;;;1.80;;
1136;SDS011;557;48.466;7.950;2023-04-24T05:29:18;2.80;;;1.90;;
1136;SDS011;557;48.466;7.950;2023-04-24T05:32:05;2.57;;;1.70;;
1136;SDS011;557;48.466;7.950;2023-04-24T05:34:54;4.57;;;2.27;;
1136;SDS011;557;48.466;7.950;2023-04-24T05:37:41;3.00;;;1.83;;
1136;SDS011;557;48.466;7.950;2023-04-24T05:40:29;3.70;;;2.23;;
1136;SDS011;557;48.466;7.950;2023-04-24T05:43:16;4.37;;;2.00;;
1136;SDS011;557;48.466;7.950;2023-04-24T05:46:03;7.60;;;2.20;;
1136;SDS011;557;48.466;7.950;2023-04-24T05:48:51;4.03;;;2.27;;
1136;SDS011;557;48.466;7.950;2023-04-24T05:51:39;4.03;;;2.70;;
1136;SDS011;557;48.466;7.950;2023-04-24T05:54:27;3.13;;;2.23;;
1136;SDS011;557;48.466;7.950;2023-04-24T05:57:14;3.87;;;2.50;;
1136;SDS011;557;48.466;7.950;2023-04-24T06:00:02;3.60;;;2.47;;
1136;SDS011;557;48.466;7.950;2023-04-24T06:02:50;4.83;;;2.27;;
1136;SDS011;557;48.466;7.950;2023-04-24T06:05:38;3.40;;;2.43;;
1136;SDS011;557;48.466;7.950;2023-04-24T06:08:26;3.47;;;2.50;;
1136;SDS011;557;48.466;7.950;2023-04-24T06:11:14;4.60;;;2.40;;
1136;SDS011;557;48.466;7.950;2023-04-24T06:14:01;3.07;;;2.10;;
1136;SDS011;557;48.466;7.950;2023-04-24T06:16:48;4.80;;;2.90;;
1136;SDS011;557;48.466;7.950;2023-04-24T06:19:36;3.23;;;2.30;;
1136;SDS011;557;48.466;7.950;2023-04-24T06:22:23;3.40;;;2.40;;
1136;SDS011;557;48.466;7.950;2023-04-24T06:25:12;2.63;;;1.90;;
1136;SDS011;557;48.466;7.950;2023-04-24T06:27:59;3.23;;;2.30;;
1136;SDS011;557;48.466;7.950;2023-04-24T06:30:47;4.17;;;2.57;;
1136;SDS011;557;48.466;7.950;2023-04-24T06:33:34;4.27;;;2.03;;
1136;SDS011;557;48.466;7.950;2023-04-24T06:36:21;2.60;;;2.03;;
1136;SDS011;557;48.466;7.950;2023-04-24T06:39:09;2.47;;;1.70;;
1136;SDS011;557;48.466;7.950;2023-04-24T06:41:58;2.80;;;1.73;;
1136;SDS011;557;48.466;7.950;2023-04-24T06:44:46;2.90;;;2.40;;
1136;SDS011;557;48.466;7.950;2023-04-24T06:47:33;5.00;;;2.47;;
1136;SDS011;557;48.466;7.950;2023-04-24T06:50:20;4.77;;;2.37;;
1136;SDS011;557;48.466;7.950;2023-04-24T06:53:08;3.67;;;2.20;;
1136;SDS011;557;48.466;7.950;2023-04-24T06:55:56;4.50;;;3.33;;
1136;SDS011;557;48.466;7.950;2023-04-24T06:58:45;2.17;;;1.43;;
1136;SDS011;557;48.466;7.950;2023-04-24T07:01:32;1.90;;;1.63;;
1136;SDS011;557;48.466;7.950;2023-04-24T07:04:20;3.60;;;2.00;;
1136;SDS011;557;48.466;7.950;2023-04-24T07:07:08;3.10;;;1.77;;
1136;SDS011;557;48.466;7.950;2023-04-24T07:09:58;3.20;;;2.07;;
1136;SDS011;557;48.466;7.950;2023-04-24T07:12:46;3.70;;;2.10;;
1136;SDS011;557;48.466;7.950;2023-04-24T07:15:34;2.83;;;2.00;;
1136;SDS011;557;48.466;7.950;2023-04-24T07:18:22;3.60;;;2.20;;
1136;SDS011;557;48.466;7.950;2023-04-24T07:21:09;3.50;;;1.87;;
1136;SDS011;557;48.466;7.950;2023-04-24T07:23:57;2.30;;;1.70;;
1136;SDS011;557;48.466;7.950;2023-04-24T07:26:44;2.27;;;1.50;;
1136;SDS011;557;48.466;7.950;2023-04-24T07:29:32;1.97;;;1.77;;
1136;SDS011;557;48.466;7.950;2023-04-24T07:32:20;3.63;;;2.53;;
1136;SDS011;557;48.466;7.950;2023-04-24T07:35:08;3.13;;;2.40;;
1136;SDS011;557;48.466;7.950;2023-04-24T07:37:56;3.00;;;2.70;;
1136;SDS011;557;48.466;7.950;2023-04-24T07:40:43;5.10;;;2.30;;
1136;SDS011;557;48.466;7.950;2023-04-24T07:43:30;2.87;;;2.63;;
1136;SDS011;557;48.466;7.950;2023-04-24T07:46:17;2.53;;;2.33;;
1136;SDS011;557;48.466;7.950;2023-04-24T07:49:06;3.90;;;2.67;;
1136;SDS011;557;48.466;7.950;2023-04-24T07:51:54;3.90;;;3.60;;
1136;SDS011;557;48.466;7.950;2023-04-24T07:54:41;4.70;;;4.50;;
1136;SDS011;557;48.466;7.950;2023-04-24T07:57:29;4.70;;;4.40;;
1136;SDS011;557;48.466;7.950;2023-04-24T08:00:16;4.50;;;4.30;;
1136;SDS011;557;48.466;7.950;2023-04-24T08:03:04;5.40;;;5.10;;
1136;SDS011;557;48.466;7.950;2023-04-24T08:05:53;5.63;;;5.23;;
1136;SDS011;557;48.466;7.950;2023-04-24T08:08:40;5.40;;;5.10;;
1136;SDS011;557;48.466;7.950;2023-04-24T08:11:27;5.90;;;5.50;;
1136;SDS011;557;48.466;7.950;2023-04-24T08:14:15;5.70;;;5.30;;
1136;SDS011;557;48.466;7.950;2023-04-24T08:17:02;5.77;;;5.47;;
1136;SDS011;557;48.466;7.950;2023-04-24T08:19:49;5.60;;;5.30;;
1136;SDS011;557;48.466;7.950;2023-04-24T08:22:40;6.00;;;5.70;;
1136;SDS011;557;48.466;7.950;2023-04-24T08:25:27;6.13;;;5.73;;
1136;SDS011;557;48.466;7.950;2023-04-24T08:28:14;5.20;;;4.90;;
1136;SDS011;557;48.466;7.950;2023-04-24T08:31:05;5.00;;;4.70;;
1136;SDS011;557;48.466;7.950;2023-04-24T08:33:52;5.40;;;5.10;;
1136;SDS011;557;48.466;7.950;2023-04-24T08:36:40;6.07;;;5.77;;
1136;SDS011;557;48.466;7.950;2023-04-24T08:39:28;6.00;;;5.60;;
1136;SDS011;557;48.466;7.950;2023-04-24T08:42:16;5.87;;;5.37;;
1136;SDS011;557;48.466;7.950;2023-04-24T08:45:04;6.27;;;5.97;;
1136;SDS011;557;48.466;7.950;2023-04-24T08:47:54;6.20;;;5.90;;
1136;SDS011;557;48.466;7.950;2023-04-24T08:50:43;6.40;;;6.10;;
1136;SDS011;557;48.466;7.950;2023-04-24T08:53:31;6.53;;;6.13;;
1136;SDS011;557;48.466;7.950;2023-04-24T08:56:21;6.10;;;5.80;;
1136;SDS011;557;48.466;7.950;2023-04-24T08:59:09;5.87;;;5.57;;
1136;SDS011;557;48.466;7.950;2023-04-24T09:01:57;6.10;;;5.70;;
1136;SDS011;557;48.466;7.950;2023-04-24T09:04:45;6.10;;;5.60;;
1136;SDS011;557;48.466;7.950;2023-04-24T09:07:34;6.20;;;5.73;;
1136;SDS011;557;48.466;7.950;2023-04-24T09:10:24;5.63;;;5.30;;
1136;SDS011;557;48.466;7.950;2023-04-24T09:13:14;5.77;;;5.40;;
1136;SDS011;557;48.466;7.950;2023-04-24T09:16:02;5.70;;;5.40;;
1136;SDS011;557;48.466;7.950;2023-04-24T09:18:49;5.30;;;5.00;;
1136;SDS011;557;48.466;7.950;2023-04-24T09:21:37;5.53;;;5.13;;
1136;SDS011;557;48.466;7.950;2023-04-24T09:24:27;5.43;;;5.03;;
1136;SDS011;557;48.466;7.950;2023-04-24T09:27:15;5.27;;;4.90;;
1136;SDS011;557;48.466;7.950;2023-04-24T09:30:06;4.87;;;4.57;;
1136;SDS011;557;48.466;7.950;2023-04-24T09:33:09;5.20;;;4.80;;
1136;SDS011;557;48.466;7.950;2023-04-24T09:35:57;5.30;;;5.00;;
1136;SDS011;557;48.466;7.950;2023-04-24T09:38:44;5.40;;;5.10;;
1136;SDS011;557;48.466;7.950;2023-04-24T09:41:32;5.47;;;5.17;;
1136;SDS011;557;48.466;7.950;2023-04-24T09:44:19;5.17;;;4.87;;
1136;SDS011;557;48.466;7.950;2023-04-24T09:47:09;5.10;;;4.80;;
1136;SDS011;557;48.466;7.950;2023-04-24T09:49:57;4.50;;;4.20;;
1136;SDS011;557;48.466;7.950;2023-04-24T09:52:45;4.23;;;3.83;;
1136;SDS011;557;48.466;7.950;2023-04-24T09:55:35;3.70;;;3.50;;
1136;SDS011;557;48.466;7.950;2023-04-24T09:58:26;3.97;;;3.67;;
1136;SDS011;557;48.466;7.950;2023-04-24T10:01:15;3.77;;;3.47;;
1136;SDS011;557;48.466;7.950;2023-04-24T10:04:03;4.23;;;3.93;;
1136;SDS011;557;48.466;7.950;2023-04-24T10:06:52;4.10;;;3.80;;
1136;SDS011;557;48.466;7.950;2023-04-24T10:09:40;3.63;;;3.33;;
1136;SDS011;557;48.466;7.950;2023-04-24T10:12:28;3.87;;;3.40;;
1136;SDS011;557;48.466;7.950;2023-04-24T10:15:16;4.30;;;3.23;;
1136;SDS011;557;48.466;7.950;2023-04-24T10:18:06;3.80;;;3.50;;
1136;SDS011;557;48.466;7.950;2023-04-24T10:20:56;3.80;;;3.47;;
1136;SDS011;557;48.466;7.950;2023-04-24T10:23:46;3.90;;;3.50;;
1136;SDS011;557;48.466;7.950;2023-04-24T10:26:34;3.53;;;3.33;;
1136;SDS011;557;48.466;7.950;2023-04-24T10:29:22;3.57;;;3.37;;
1136;SDS011;557;48.466;7.950;2023-04-24T10:32:10;3.70;;;3.40;;
1136;SDS011;557;48.466;7.950;2023-04-24T10:34:58;3.90;;;3.60;;
1136;SDS011;557;48.466;7.950;2023-04-24T10:37:48;4.03;;;3.83;;
1136;SDS011;557;48.466;7.950;2023-04-24T10:40:37;4.40;;;4.10;;
1136;SDS011;557;48.466;7.950;2023-04-24T10:43:24;4.90;;;4.50;;
1136;SDS011;557;48.466;7.950;2023-04-24T10:46:16;4.40;;;4.20;;
1136;SDS011;557;48.466;7.950;2023-04-24T10:49:06;4.40;;;4.10;;
1136;SDS011;557;48.466;7.950;2023-04-24T10:51:59;4.10;;;3.80;;
1136;SDS011;557;48.466;7.950;2023-04-24T10:54:48;4.67;;;4.37;;
1136;SDS011;557;48.466;7.950;2023-04-24T10:57:36;4.40;;;4.10;;
1136;SDS011;557;48.466;7.950;2023-04-24T11:00:24;4.13;;;3.93;;
1136;SDS011;557;48.466;7.950;2023-04-24T11:06:15;3.47;;;3.27;;
1136;SDS011;557;48.466;7.950;2023-04-24T11:09:14;2.97;;;2.50;;
1136;SDS011;557;48.466;7.950;2023-04-24T11:12:06;4.70;;;2.40;;
1136;SDS011;557;48.466;7.950;2023-04-24T11:15:01;2.50;;;1.90;;
1136;SDS011;557;48.466;7.950;2023-04-24T11:17:49;2.87;;;1.80;;
1136;SDS011;557;48.466;7.950;2023-04-24T11:20:36;2.50;;;2.03;;
1136;SDS011;557;48.466;7.950;2023-04-24T11:23:28;2.20;;;1.60;;
1136;SDS011;557;48.466;7.950;2023-04-24T11:26:22;2.33;;;1.80;;
1136;SDS011;557;48.466;7.950;2023-04-24T11:29:17;3.03;;;1.90;;
1136;SDS011;557;48.466;7.950;2023-04-24T11:32:16;3.50;;;2.30;;
1136;SDS011;557;48.466;7.950;2023-04-24T11:35:14;4.00;;;2.20;;
1136;SDS011;557;48.466;7.950;2023-04-24T11:38:03;2.53;;;2.30;;
1136;SDS011;557;48.466;7.950;2023-04-24T11:40:51;2.93;;;2.50;;
1136;SDS011;557;48.466;7.950;2023-04-24T11:43:39;3.03;;;2.60;;
1136;SDS011;557;48.466;7.950;2023-04-24T11:46:29;3.20;;;2.90;;
1136;SDS011;557;48.466;7.950;2023-04-24T11:49:17;3.47;;;3.20;;
1136;SDS011;557;48.466;7.950;2023-04-24T11:52:04;3.60;;;3.30;;
1136;SDS011;557;48.466;7.950;2023-04-24T11:54:52;4.50;;;3.50;;
1136;SDS011;557;48.466;7.950;2023-04-24T11:57:39;3.80;;;3.50;;
1136;SDS011;557;48.466;7.950;2023-04-24T12:00:30;4.07;;;3.70;;
1136;SDS011;557;48.466;7.950;2023-04-24T12:03:21;3.80;;;3.50;;
1136;SDS011;557;48.466;7.950;2023-04-24T12:06:08;4.60;;;4.30;;
1136;SDS011;557;48.466;7.950;2023-04-24T12:08:57;4.50;;;4.20;;
1136;SDS011;557;48.466;7.950;2023-04-24T12:11:52;5.23;;;4.77;;
1136;SDS011;557;48.466;7.950;2023-04-24T12:14:44;5.13;;;4.63;;
1136;SDS011;557;48.466;7.950;2023-04-24T12:17:35;4.53;;;4.23;;
1136;SDS011;557;48.466;7.950;2023-04-24T12:20:25;6.10;;;4.60;;
1136;SDS011;557;48.466;7.950;2023-04-24T12:23:13;5.63;;;5.03;;
1136;SDS011;557;48.466;7.950;2023-04-24T12:26:03;5.47;;;5.07;;
1136;SDS011;557;48.466;7.950;2023-04-24T12:28:50;6.73;;;6.10;;
1136;SDS011;557;48.466;7.950;2023-04-24T12:31:38;5.17;;;4.87;;
1136;SDS011;557;48.466;7.950;2023-04-24T12:34:25;5.60;;;5.20;;
1136;SDS011;557;48.466;7.950;2023-04-24T12:37:14;5.03;;;4.67;;
1136;SDS011;557;48.466;7.950;2023-04-24T12:40:02;4.77;;;4.47;;
1136;SDS011;557;48.466;7.950;2023-04-24T12:42:52;5.63;;;5.23;;
1136;SDS011;557;48.466;7.950;2023-04-24T12:45:40;6.03;;;5.63;;
1136;SDS011;557;48.466;7.950;2023-04-24T12:48:27;6.03;;;5.53;;
1136;SDS011;557;48.466;7.950;2023-04-24T12:51:15;4.97;;;4.67;;
1136;SDS011;557;48.466;7.950;2023-04-24T12:54:04;5.70;;;5.20;;
1136;SDS011;557;48.466;7.950;2023-04-24T12:56:52;5.17;;;4.87;;
1136;SDS011;557;48.466;7.950;2023-04-24T12:59:39;5.10;;;4.80;;
1136;SDS011;557;48.466;7.950;2023-04-24T13:02:27;5.50;;;5.10;;
1136;SDS011;557;48.466;7.950;2023-04-24T13:05:16;5.10;;;4.80;;
1136;SDS011;557;48.466;7.950;2023-04-24T13:08:03;5.97;;;5.47;;
1136;SDS011;557;48.466;7.950;2023-04-24T13:10:52;5.30;;;5.00;;
1136;SDS011;557;48.466;7.950;2023-04-24T13:13:39;5.30;;;5.00;;
1136;SDS011;557;48.466;7.950;2023-04-24T13:16:27;5.77;;;5.37;;
1136;SDS011;557;48.466;7.950;2023-04-24T13:19:14;5.80;;;5.40;;
1136;SDS011;557;48.466;7.950;2023-04-24T13:22:01;5.93;;;5.57;;
1136;SDS011;557;48.466;7.950;2023-04-24T13:24:49;6.60;;;5.00;;
1136;SDS011;557;48.466;7.950;2023-04-24T13:27:39;5.20;;;4.80;;
1136;SDS011;557;48.466;7.950;2023-04-24T13:30:26;5.83;;;5.27;;
1136;SDS011;557;48.466;7.950;2023-04-24T13:33:13;5.00;;;4.70;;
1136;SDS011;557;48.466;7.950;2023-04-24T13:36:01;5.37;;;5.07;;
1136;SDS011;557;48.466;7.950;2023-04-24T13:38:48;5.80;;;5.40;;
1136;SDS011;557;48.466;7.950;2023-04-24T13:41:35;5.30;;;4.90;;
1136;SDS011;557;48.466;7.950;2023-04-24T13:44:24;5.70;;;5.30;;
1136;SDS011;557;48.466;7.950;2023-04-24T13:47:12;5.83;;;5.43;;
1136;SDS011;557;48.466;7.950;2023-04-24T13:49:59;6.73;;;5.87;;
1136;SDS011;557;48.466;7.950;2023-04-24T13:52:47;6.37;;;5.87;;
1136;SDS011;557;48.466;7.950;2023-04-24T13:55:34;6.00;;;5.53;;
1136;SDS011;557;48.466;7.950;2023-04-24T13:58:22;6.20;;;5.80;;
1136;SDS011;557;48.466;7.950;2023-04-24T14:01:11;7.20;;;6.27;;
1136;SDS011;557;48.466;7.950;2023-04-24T14:03:58;7.53;;;7.13;;
1136;SDS011;557;48.466;7.950;2023-04-24T14:06:46;6.43;;;6.03;;
1136;SDS011;557;48.466;7.950;2023-04-24T14:09:33;5.90;;;5.60;;
1136;SDS011;557;48.466;7.950;2023-04-24T14:12:21;6.03;;;5.73;;
1136;SDS011;557;48.466;7.950;2023-04-24T14:15:08;5.90;;;5.60;;
1136;SDS011;557;48.466;7.950;2023-04-24T14:18:00;6.27;;;5.87;;
1136;SDS011;557;48.466;7.950;2023-04-24T14:20:47;6.77;;;6.23;;
1136;SDS011;557;48.466;7.950;2023-04-24T14:23:34;6.50;;;6.10;;
1136;SDS011;557;48.466;7.950;2023-04-24T14:26:22;6.50;;;6.10;;
1136;SDS011;557;48.466;7.950;2023-04-24T14:29:10;6.70;;;6.30;;
1136;SDS011;557;48.466;7.950;2023-04-24T14:31:57;6.30;;;5.90;;
1136;SDS011;557;48.466;7.950;2023-04-24T14:34:46;6.80;;;6.40;;
1136;SDS011;557;48.466;7.950;2023-04-24T14:37:33;6.03;;;5.63;;
1136;SDS011;557;48.466;7.950;2023-04-24T14:40:21;6.50;;;6.20;;
1136;SDS011;557;48.466;7.950;2023-04-24T14:43:08;6.90;;;6.50;;
1136;SDS011;557;48.466;7.950;2023-04-24T14:45:56;6.97;;;6.57;;
1136;SDS011;557;48.466;7.950;2023-04-24T14:48:43;6.83;;;6.43;;
1136;SDS011;557;48.466;7.950;2023-04-24T14:51:32;7.00;;;6.63;;
1136;SDS011;557;48.466;7.950;2023-04-24T14:54:19;7.50;;;7.10;;
1136;SDS011;557;48.466;7.950;2023-04-24T14:57:08;7.13;;;6.73;;
1136;SDS011;557;48.466;7.950;2023-04-24T14:59:56;7.10;;;6.77;;
1136;SDS011;557;48.466;7.950;2023-04-24T15:02:43;7.27;;;6.87;;
1136;SDS011;557;48.466;7.950;2023-04-24T15:05:31;6.97;;;6.63;;
1136;SDS011;557;48.466;7.950;2023-04-24T15:08:19;7.50;;;7.10;;
1136;SDS011;557;48.466;7.950;2023-04-24T15:11:07;6.90;;;6.60;;
1136;SDS011;557;48.466;7.950;2023-04-24T15:13:55;7.37;;;6.97;;
1136;SDS011;557;48.466;7.950;2023-04-24T15:16:42;7.17;;;6.77;;
1136;SDS011;557;48.466;7.950;2023-04-24T15:19:30;7.00;;;6.50;;
1136;SDS011;557;48.466;7.950;2023-04-24T15:22:18;7.40;;;7.00;;
1136;SDS011;557;48.466;7.950;2023-04-24T15:25:07;7.47;;;7.17;;
1136;SDS011;557;48.466;7.950;2023-04-24T15:27:54;6.90;;;6.60;;
1136;SDS011;557;48.466;7.950;2023-04-24T15:30:43;7.20;;;6.80;;
1136;SDS011;557;48.466;7.950;2023-04-24T15:33:30;7.30;;;6.90;;
1136;SDS011;557;48.466;7.950;2023-04-24T15:36:17;7.77;;;7.33;;
1136;SDS011;557;48.466;7.950;2023-04-24T15:39:06;7.87;;;7.37;;
1136;SDS011;557;48.466;7.950;2023-04-24T15:41:56;7.53;;;7.13;;
1136;SDS011;557;48.466;7.950;2023-04-24T15:44:44;7.80;;;7.30;;
1136;SDS011;557;48.466;7.950;2023-04-24T15:47:31;7.10;;;6.80;;
1136;SDS011;557;48.466;7.950;2023-04-24T15:50:19;7.20;;;6.87;;
1136;SDS011;557;48.466;7.950;2023-04-24T15:53:08;7.77;;;7.30;;
1136;SDS011;557;48.466;7.950;2023-04-24T15:55:55;7.63;;;7.23;;
1136;SDS011;557;48.466;7.950;2023-04-24T15:58:44;7.30;;;6.90;;
1136;SDS011;557;48.466;7.950;2023-04-24T16:01:31;7.43;;;7.03;;
1136;SDS011;557;48.466;7.950;2023-04-24T16:04:19;7.10;;;6.70;;
1136;SDS011;557;48.466;7.950;2023-04-24T16:07:06;7.60;;;7.20;;
1136;SDS011;557;48.466;7.950;2023-04-24T16:09:53;7.70;;;7.30;;
1136;SDS011;557;48.466;7.950;2023-04-24T16:12:41;7.67;;;7.00;;
1136;SDS011;557;48.466;7.950;2023-04-24T16:15:30;7.47;;;6.97;;
1136;SDS011;557;48.466;7.950;2023-04-24T16:18:17;7.10;;;6.80;;
1136;SDS011;557;48.466;7.950;2023-04-24T16:21:04;7.43;;;7.10;;
1136;SDS011;557;48.466;7.950;2023-04-24T16:23:53;7.80;;;7.40;;
1136;SDS011;557;48.466;7.950;2023-04-24T16:26:40;7.80;;;7.40;;
1136;SDS011;557;48.466;7.950;2023-04-24T16:29:28;7.40;;;7.00;;
1136;SDS011;557;48.466;7.950;2023-04-24T16:32:20;7.37;;;6.97;;
1136;SDS011;557;48.466;7.950;2023-04-24T16:35:07;7.47;;;6.90;;
1136;SDS011;557;48.466;7.950;2023-04-24T16:37:55;7.30;;;6.90;;
1136;SDS011;557;48.466;7.950;2023-04-24T16:40:43;7.30;;;6.80;;
1136;SDS011;557;48.466;7.950;2023-04-24T16:43:30;10.13;;;9.23;;
1136;SDS011;557;48.466;7.950;2023-04-24T16:46:17;7.43;;;7.00;;
1136;SDS011;557;48.466;7.950;2023-04-24T16:49:06;6.70;;;6.20;;
1136;SDS011;557;48.466;7.950;2023-04-24T16:51:57;6.50;;;6.10;;
1136;SDS011;557;48.466;7.950;2023-04-24T16:54:45;6.50;;;6.10;;
1136;SDS011;557;48.466;7.950;2023-04-24T16:57:32;6.60;;;6.10;;
1136;SDS011;557;48.466;7.950;2023-04-24T17:00:19;6.10;;;5.70;;
1136;SDS011;557;48.466;7.950;2023-04-24T17:03:07;8.87;;;7.87;;
1136;SDS011;557;48.466;7.950;2023-04-24T17:05:55;10.40;;;8.23;;
1136;SDS011;557;48.466;7.950;2023-04-24T17:08:43;9.30;;;7.77;;
1136;SDS011;557;48.466;7.950;2023-04-24T17:11:30;14.67;;;10.80;;
1136;SDS011;557;48.466;7.950;2023-04-24T17:14:17;45.13;;;26.33;;
1136;SDS011;557;48.466;7.950;2023-04-24T17:17:05;13.43;;;10.23;;
1136;SDS011;557;48.466;7.950;2023-04-24T17:19:52;7.03;;;6.33;;
1136;SDS011;557;48.466;7.950;2023-04-24T17:22:41;5.90;;;5.60;;
1136;SDS011;557;48.466;7.950;2023-04-24T17:25:31;6.63;;;6.23;;
1136;SDS011;557;48.466;7.950;2023-04-24T17:28:22;6.97;;;6.57;;
1136;SDS011;557;48.466;7.950;2023-04-24T17:31:13;7.00;;;6.70;;
1136;SDS011;557;48.466;7.950;2023-04-24T17:34:00;7.33;;;6.83;;
1136;SDS011;557;48.466;7.950;2023-04-24T17:36:48;7.90;;;7.30;;
1136;SDS011;557;48.466;7.950;2023-04-24T17:39:37;6.93;;;6.53;;
1136;SDS011;557;48.466;7.950;2023-04-24T17:42:24;6.90;;;6.50;;
1136;SDS011;557;48.466;7.950;2023-04-24T17:45:12;7.33;;;6.67;;